createdAt,value
2023-01-26T00:02:18.214Z,4.80
2023-01-26T00:04:46.408Z,4.80
2023-01-26T00:07:14.859Z,4.80
2023-01-26T00:09:43.083Z,4.80
2023-01-26T00:12:11.321Z,4.90
2023-01-26T00:14:50.951Z,4.80
2023-01-26T00:17:28.199Z,4.80
2023-01-26T00:19:58.145Z,4.80
2023-01-26T00:22:27.667Z,4.80
2023-01-26T00:24:56.164Z,4.70
2023-01-26T00:27:24.496Z,4.70
2023-01-26T00:29:52.766Z,4.60
2023-01-26T00:32:22.383Z,4.60
2023-01-26T00:34:50.751Z,4.60
2023-01-26T00:37:18.984Z,4.60
2023-01-26T00:39:47.227Z,4.50
2023-01-26T00:42:16.044Z,4.50
2023-01-26T00:44:44.984Z,4.60
2023-01-26T00:47:14.892Z,4.50
2023-01-26T00:49:44.793Z,4.50
2023-01-26T00:52:13.811Z,4.50
2023-01-26T00:54:42.186Z,4.50
2023-01-26T00:57:10.804Z,4.50
2023-01-26T00:59:39.057Z,4.50
2023-01-26T01:02:07.303Z,4.50
2023-01-26T01:04:35.607Z,4.50
2023-01-26T01:07:05.437Z,4.40
2023-01-26T01:09:33.657Z,4.40
2023-01-26T01:12:01.987Z,4.40
2023-01-26T01:14:30.275Z,4.40
2023-01-26T01:16:58.596Z,4.40
2023-01-26T01:19:27.464Z,4.40
2023-01-26T01:21:55.738Z,4.30
2023-01-26T01:24:25.527Z,4.30
2023-01-26T01:26:53.780Z,4.30
2023-01-26T01:29:22.024Z,4.40
2023-01-26T01:31:50.264Z,4.40
2023-01-26T01:34:18.534Z,4.40
2023-01-26T01:36:46.781Z,4.40
2023-01-26T01:41:44.449Z,4.30
2023-01-26T01:44:15.160Z,4.40
2023-01-26T01:46:47.774Z,4.40
2023-01-26T01:49:20.150Z,4.40
2023-01-26T01:51:53.615Z,4.50
2023-01-26T01:54:26.591Z,4.50
2023-01-26T01:56:59.550Z,4.40
2023-01-26T01:59:27.990Z,4.40
2023-01-26T02:01:57.925Z,4.50
2023-01-26T02:04:27.424Z,4.50
2023-01-26T02:06:58.644Z,4.50
2023-01-26T02:09:49.410Z,4.50
2023-01-26T02:12:23.232Z,4.40
2023-01-26T02:14:53.353Z,4.40
2023-01-26T02:17:21.868Z,4.30
2023-01-26T02:19:57.103Z,4.30
2023-01-26T02:22:33.672Z,4.40
2023-01-26T02:25:07.784Z,4.40
2023-01-26T02:27:38.574Z,4.40
2023-01-26T02:30:09.257Z,4.40
2023-01-26T02:32:37.665Z,4.40
2023-01-26T02:35:06.425Z,4.50
2023-01-26T02:37:34.619Z,4.50
2023-01-26T02:40:07.040Z,4.50
2023-01-26T02:42:42.117Z,4.50
2023-01-26T02:45:12.466Z,4.50
2023-01-26T02:47:41.267Z,4.50
2023-01-26T02:50:10.151Z,4.50
2023-01-26T02:52:39.485Z,4.50
2023-01-26T02:55:25.466Z,4.50
2023-01-26T02:57:57.161Z,4.50
2023-01-26T03:00:27.291Z,4.50
2023-01-26T03:02:58.392Z,4.40
2023-01-26T03:05:27.013Z,4.40
2023-01-26T03:07:55.468Z,4.40
2023-01-26T03:10:25.358Z,4.40
2023-01-26T03:12:55.057Z,4.50
2023-01-26T03:15:40.541Z,4.40
2023-01-26T03:18:28.384Z,4.40
2023-01-26T03:21:14.509Z,4.30
2023-01-26T03:23:59.930Z,4.30
2023-01-26T03:26:45.875Z,4.30
2023-01-26T03:29:15.803Z,4.30
2023-01-26T03:31:44.024Z,4.30
2023-01-26T03:34:12.281Z,4.40
2023-01-26T03:36:40.571Z,4.40
2023-01-26T03:39:08.847Z,4.40
2023-01-26T03:41:54.534Z,4.40
2023-01-26T03:44:41.319Z,4.40
2023-01-26T03:47:27.195Z,4.30
2023-01-26T03:50:12.960Z,4.30
2023-01-26T03:52:59.090Z,4.30
2023-01-26T03:55:44.804Z,4.20
2023-01-26T03:58:13.028Z,4.30
2023-01-26T04:00:42.723Z,4.30
2023-01-26T04:03:28.505Z,4.30
2023-01-26T04:06:17.083Z,4.30
2023-01-26T04:08:45.843Z,4.30
2023-01-26T04:11:14.371Z,4.20
2023-01-26T04:13:59.941Z,4.20
2023-01-26T04:16:46.858Z,4.20
2023-01-26T04:19:32.812Z,4.30
2023-01-26T04:22:01.521Z,4.30
2023-01-26T04:24:29.748Z,4.30
2023-01-26T04:26:57.992Z,4.40
2023-01-26T04:29:26.236Z,4.40
2023-01-26T04:31:55.892Z,4.40
2023-01-26T04:34:24.205Z,4.40
2023-01-26T04:36:52.490Z,4.40
2023-01-26T04:39:20.910Z,4.40
2023-01-26T04:41:49.189Z,4.40
2023-01-26T04:44:18.049Z,4.40
2023-01-26T04:46:48.306Z,4.40
2023-01-26T04:49:18.035Z,4.40
2023-01-26T04:51:46.279Z,4.40
2023-01-26T04:54:14.482Z,4.40
2023-01-26T04:56:42.787Z,4.40
2023-01-26T04:59:12.166Z,4.40
2023-01-26T05:01:40.481Z,4.40
2023-01-26T05:04:09.752Z,4.40
2023-01-26T05:06:39.551Z,4.40
2023-01-26T05:09:07.905Z,4.40
2023-01-26T05:11:36.273Z,4.50
2023-01-26T05:14:04.859Z,4.50
2023-01-26T05:16:33.160Z,4.50
2023-01-26T05:19:01.549Z,4.50
2023-01-26T05:21:29.765Z,4.50
2023-01-26T05:23:59.434Z,4.50
2023-01-26T05:26:27.717Z,4.50
2023-01-26T05:28:55.923Z,4.40
2023-01-26T05:31:24.192Z,4.40
2023-01-26T05:33:52.502Z,4.40
2023-01-26T05:36:20.782Z,4.30
2023-01-26T05:38:49.037Z,4.30
2023-01-26T05:41:18.669Z,4.30
2023-01-26T05:43:46.898Z,4.30
2023-01-26T05:46:15.166Z,4.30
2023-01-26T05:48:43.428Z,4.30
2023-01-26T05:51:11.678Z,4.30
2023-01-26T05:53:39.907Z,4.30
2023-01-26T05:56:08.768Z,4.30
2023-01-26T05:58:38.534Z,4.30
2023-01-26T06:01:06.995Z,4.20
2023-01-26T06:03:35.207Z,4.20
2023-01-26T06:06:03.431Z,4.20
2023-01-26T06:08:33.594Z,4.20
2023-01-26T06:11:02.274Z,4.30
2023-01-26T06:13:31.165Z,4.20
2023-01-26T06:16:03.403Z,4.20
2023-01-26T06:18:31.703Z,4.10
2023-01-26T06:21:00.650Z,4.10
2023-01-26T06:23:28.971Z,4.10
2023-01-26T06:26:00.670Z,4.10
2023-01-26T06:28:29.125Z,4.10
2023-01-26T06:31:02.543Z,4.10
2023-01-26T06:33:30.906Z,4.00
2023-01-26T06:36:03.024Z,4.00
2023-01-26T06:38:31.615Z,4.00
2023-01-26T06:41:03.193Z,4.00
2023-01-26T06:43:31.673Z,4.00
2023-01-26T06:46:00.484Z,4.00
2023-01-26T06:48:32.241Z,4.00
2023-01-26T06:51:06.759Z,4.00
2023-01-26T06:53:38.245Z,4.00
2023-01-26T06:56:06.874Z,4.00
2023-01-26T06:58:35.153Z,4.00
2023-01-26T07:01:03.468Z,4.00
2023-01-26T07:03:33.214Z,4.00
2023-01-26T07:06:01.510Z,4.00
2023-01-26T07:08:30.260Z,4.00
2023-01-26T07:10:58.515Z,4.00
2023-01-26T07:13:26.740Z,4.00
2023-01-26T07:16:01.971Z,4.00
2023-01-26T07:18:30.267Z,4.00
2023-01-26T07:21:03.254Z,3.90
2023-01-26T07:23:34.578Z,4.00
2023-01-26T07:26:03.410Z,4.00
2023-01-26T07:28:31.696Z,4.00
2023-01-26T07:31:00.591Z,4.00
2023-01-26T07:33:30.941Z,4.00
2023-01-26T07:36:00.120Z,4.00
2023-01-26T07:38:30.228Z,4.10
2023-01-26T07:40:58.788Z,4.10
2023-01-26T07:43:27.002Z,4.10
2023-01-26T07:45:56.084Z,4.10
2023-01-26T07:48:25.598Z,4.10
2023-01-26T07:50:53.863Z,4.10
2023-01-26T07:53:23.156Z,4.10
2023-01-26T07:55:52.897Z,4.10
2023-01-26T07:58:21.475Z,4.10
2023-01-26T08:00:49.710Z,4.10
2023-01-26T08:03:17.963Z,4.10
2023-01-26T08:05:47.358Z,4.10
2023-01-26T08:08:15.793Z,4.10
2023-01-26T08:10:44.054Z,4.00
2023-01-26T08:13:14.582Z,4.00
2023-01-26T08:15:43.817Z,3.90
2023-01-26T08:18:12.053Z,3.90
2023-01-26T08:20:40.260Z,3.90
2023-01-26T08:23:08.510Z,3.90
2023-01-26T08:25:36.773Z,3.90
2023-01-26T08:28:05.012Z,3.80
2023-01-26T08:30:34.614Z,3.80
2023-01-26T08:33:02.884Z,3.80
2023-01-26T08:35:32.990Z,3.80
2023-01-26T08:38:01.357Z,3.80
2023-01-26T08:40:29.575Z,3.80
2023-01-26T08:43:00.620Z,3.80
2023-01-26T08:45:28.858Z,3.80
2023-01-26T08:47:58.544Z,3.80
2023-01-26T08:50:27.261Z,3.70
2023-01-26T08:52:58.386Z,3.70
2023-01-26T08:55:28.449Z,3.70
2023-01-26T08:57:57.241Z,3.70
2023-01-26T09:00:26.423Z,3.70
2023-01-26T09:03:02.133Z,3.70
2023-01-26T09:05:33.833Z,3.60
2023-01-26T09:08:02.168Z,3.60
2023-01-26T09:10:30.464Z,3.60
2023-01-26T09:12:59.136Z,3.70
2023-01-26T09:15:27.988Z,3.70
2023-01-26T09:17:56.317Z,3.70
2023-01-26T09:20:25.941Z,3.70
2023-01-26T09:22:54.780Z,3.70
2023-01-26T09:25:23.045Z,3.70
2023-01-26T09:27:51.291Z,3.80
2023-01-26T09:30:19.652Z,3.80
2023-01-26T09:32:47.909Z,3.80
2023-01-26T09:35:16.495Z,3.80
2023-01-26T09:37:46.406Z,3.80
2023-01-26T09:40:19.078Z,3.80
2023-01-26T09:43:01.752Z,3.70
2023-01-26T09:45:34.892Z,3.70
2023-01-26T09:48:19.029Z,3.60
2023-01-26T09:50:52.520Z,3.60
2023-01-26T09:53:26.697Z,3.60
2023-01-26T09:55:56.124Z,3.60
2023-01-26T09:58:35.768Z,3.70
2023-01-26T10:01:05.155Z,3.70
2023-01-26T10:03:40.941Z,3.70
2023-01-26T10:06:17.430Z,3.60
2023-01-26T10:08:47.144Z,3.60
2023-01-26T10:11:19.337Z,3.60
2023-01-26T10:13:51.850Z,3.60
2023-01-26T10:16:24.455Z,3.70
2023-01-26T10:18:57.752Z,3.70
2023-01-26T10:21:32.188Z,3.70
2023-01-26T10:24:03.547Z,3.80
2023-01-26T10:26:33.499Z,3.80
2023-01-26T10:29:02.195Z,3.90
2023-01-26T10:31:32.851Z,3.90
2023-01-26T10:34:07.452Z,3.90
2023-01-26T10:36:36.321Z,4.00
2023-01-26T10:39:08.494Z,4.00
2023-01-26T10:41:37.337Z,4.00
2023-01-26T10:44:22.420Z,4.00
2023-01-26T10:47:05.711Z,4.00
2023-01-26T10:49:34.195Z,4.00
2023-01-26T10:52:17.483Z,4.00
2023-01-26T10:54:47.695Z,4.00
2023-01-26T10:57:20.404Z,4.10
2023-01-26T10:59:55.340Z,4.10
2023-01-26T11:02:27.228Z,4.20
2023-01-26T11:05:17.049Z,4.20
2023-01-26T11:07:47.018Z,4.20
2023-01-26T11:10:24.599Z,4.60
2023-01-26T11:13:07.091Z,4.70
2023-01-26T11:15:42.678Z,4.60
2023-01-26T11:18:22.189Z,4.50
2023-01-26T11:20:55.553Z,4.40
2023-01-26T11:23:40.890Z,4.30
2023-01-26T11:26:39.051Z,4.30
2023-01-26T11:29:43.072Z,4.30
2023-01-26T11:32:20.102Z,4.20
2023-01-26T11:34:58.321Z,4.20
2023-01-26T11:37:48.879Z,4.20
2023-01-26T11:40:29.758Z,4.20
2023-01-26T11:43:24.011Z,4.30
2023-01-26T11:46:10.844Z,4.30
2023-01-26T11:48:51.942Z,4.40
2023-01-26T11:51:30.577Z,4.40
2023-01-26T11:54:18.738Z,4.40
2023-01-26T11:56:53.744Z,4.40
2023-01-26T11:59:28.559Z,4.40
2023-01-26T12:02:02.540Z,4.50
2023-01-26T12:04:35.829Z,4.50
2023-01-26T12:07:10.474Z,4.50
2023-01-26T12:09:44.182Z,4.60
2023-01-26T12:12:16.439Z,4.70
2023-01-26T12:14:51.272Z,4.70
2023-01-26T12:17:33.353Z,4.60
2023-01-26T12:20:14.468Z,4.60
2023-01-26T12:22:47.863Z,4.60
2023-01-26T12:25:24.873Z,4.60
2023-01-26T12:28:00.137Z,4.60
2023-01-26T12:30:37.944Z,4.60
2023-01-26T12:33:06.556Z,4.60
2023-01-26T12:35:55.711Z,4.60
2023-01-26T12:38:32.236Z,4.60
2023-01-26T12:41:10.546Z,4.70
2023-01-26T12:43:54.177Z,4.70
2023-01-26T12:46:28.619Z,4.70
2023-01-26T12:49:00.331Z,4.70
2023-01-26T12:51:34.227Z,4.70
2023-01-26T12:54:07.808Z,4.70
2023-01-26T12:56:42.345Z,4.70
2023-01-26T12:59:39.221Z,4.70
2023-01-26T13:02:24.693Z,4.60
2023-01-26T13:04:53.707Z,4.50
2023-01-26T13:07:34.283Z,4.50
2023-01-26T13:10:23.271Z,4.50
2023-01-26T13:12:53.514Z,4.50
2023-01-26T13:15:23.629Z,4.40
2023-01-26T13:17:56.845Z,4.40
2023-01-26T13:20:43.095Z,4.50
2023-01-26T13:23:46.870Z,4.50
2023-01-26T13:26:21.525Z,4.50
2023-01-26T13:28:51.005Z,4.40
2023-01-26T13:31:34.200Z,4.40
2023-01-26T13:34:08.938Z,4.40
2023-01-26T13:36:40.743Z,4.40
2023-01-26T13:39:15.584Z,4.40
2023-01-26T13:41:48.788Z,4.40
2023-01-26T13:44:21.541Z,4.40
2023-01-26T13:46:55.520Z,4.40
2023-01-26T13:49:37.768Z,4.30
2023-01-26T13:52:18.787Z,4.30
2023-01-26T13:54:47.795Z,4.40
2023-01-26T13:57:23.123Z,4.30
2023-01-26T13:59:52.551Z,4.30
2023-01-26T14:02:26.768Z,4.30
2023-01-26T14:04:58.240Z,4.30
2023-01-26T14:07:29.044Z,4.30
2023-01-26T14:10:01.495Z,4.30
2023-01-26T14:12:34.875Z,4.30
2023-01-26T14:15:07.436Z,4.30
2023-01-26T14:17:38.108Z,4.30
2023-01-26T14:20:25.548Z,4.30
2023-01-26T14:23:15.531Z,4.30
2023-01-26T14:25:47.316Z,4.30
2023-01-26T14:28:17.649Z,4.20
2023-01-26T14:30:52.330Z,4.20
2023-01-26T14:33:21.552Z,4.20
2023-01-26T14:36:00.108Z,4.10
2023-01-26T14:38:29.935Z,4.00
2023-01-26T14:41:01.135Z,4.00
2023-01-26T14:43:29.494Z,4.00
2023-01-26T14:46:04.140Z,3.90
2023-01-26T14:48:34.926Z,3.90
2023-01-26T14:51:08.294Z,3.80
2023-01-26T14:53:36.561Z,3.70
2023-01-26T14:56:05.320Z,3.80
2023-01-26T14:58:35.079Z,3.80
2023-01-26T15:01:04.905Z,3.90
2023-01-26T15:03:36.916Z,4.00
2023-01-26T15:06:18.000Z,4.00
2023-01-26T15:08:56.519Z,4.00
2023-01-26T15:11:47.571Z,3.90
2023-01-26T15:14:34.673Z,3.90
2023-01-26T15:17:03.211Z,3.90
2023-01-26T15:19:39.642Z,3.90
2023-01-26T15:22:20.970Z,3.90
2023-01-26T15:25:02.169Z,3.80
2023-01-26T15:27:35.432Z,3.80
2023-01-26T15:30:06.648Z,3.80
2023-01-26T15:32:41.166Z,3.80
2023-01-26T15:35:22.666Z,3.70
2023-01-26T15:38:01.463Z,3.70
2023-01-26T15:40:30.326Z,3.70
2023-01-26T15:43:13.802Z,3.70
2023-01-26T15:45:43.820Z,3.70
2023-01-26T15:48:12.126Z,3.80
2023-01-26T15:50:40.393Z,3.80
2023-01-26T15:53:14.698Z,3.80
2023-01-26T15:55:44.257Z,3.70
2023-01-26T15:58:12.533Z,3.70
2023-01-26T16:00:41.554Z,3.70
2023-01-26T16:03:16.488Z,3.80
2023-01-26T16:05:47.831Z,3.70
2023-01-26T16:08:18.010Z,3.70
2023-01-26T16:10:47.089Z,3.70
2023-01-26T16:13:17.780Z,3.70
2023-01-26T16:15:48.388Z,3.60
2023-01-26T16:18:17.004Z,3.70
2023-01-26T16:20:46.980Z,3.70
2023-01-26T16:23:20.631Z,3.70
2023-01-26T16:25:49.331Z,3.70
2023-01-26T16:28:18.166Z,3.80
2023-01-26T16:30:48.310Z,3.80
2023-01-26T16:33:18.563Z,3.80
2023-01-26T16:35:46.964Z,3.80
2023-01-26T16:38:15.280Z,3.80
2023-01-26T16:40:47.696Z,3.80
2023-01-26T16:43:19.834Z,3.80
2023-01-26T16:45:49.248Z,3.90
2023-01-26T16:48:18.511Z,3.90
2023-01-26T16:50:47.288Z,3.90
2023-01-26T16:53:22.462Z,3.90
2023-01-26T16:55:52.143Z,3.90
2023-01-26T16:58:21.673Z,3.90
2023-01-26T17:00:50.285Z,3.90
2023-01-26T17:03:18.572Z,3.90
2023-01-26T17:05:46.958Z,3.90
2023-01-26T17:08:15.170Z,3.90
2023-01-26T17:11:00.617Z,3.90
2023-01-26T17:13:32.677Z,3.90
2023-01-26T17:16:00.873Z,3.90
2023-01-26T17:18:29.179Z,3.80
2023-01-26T17:21:03.457Z,3.80
2023-01-26T17:23:32.467Z,3.80
2023-01-26T17:26:01.074Z,3.80
2023-01-26T17:28:29.529Z,3.80
2023-01-26T17:31:01.254Z,3.80
2023-01-26T17:33:31.004Z,3.80
2023-01-26T17:36:02.319Z,3.80
2023-01-26T17:38:30.708Z,3.80
2023-01-26T17:40:59.783Z,3.90
2023-01-26T17:43:29.321Z,3.90
2023-01-26T17:46:09.734Z,3.90
2023-01-26T17:48:38.723Z,3.90
2023-01-26T17:51:08.102Z,3.90
2023-01-26T17:53:39.335Z,3.90
2023-01-26T17:56:08.795Z,3.80
2023-01-26T17:58:37.251Z,3.80
2023-01-26T18:01:07.633Z,3.80
2023-01-26T18:03:36.510Z,3.70
2023-01-26T18:06:04.994Z,3.70
2023-01-26T18:08:33.206Z,3.60
2023-01-26T18:11:03.118Z,3.70
2023-01-26T18:13:33.057Z,3.60
2023-01-26T18:16:01.559Z,3.70
2023-01-26T18:18:31.808Z,3.70
2023-01-26T18:21:10.645Z,3.70
2023-01-26T18:23:38.878Z,3.70
2023-01-26T18:26:07.989Z,3.80
2023-01-26T18:28:36.235Z,3.80
2023-01-26T18:31:10.723Z,3.80
2023-01-26T18:33:41.619Z,3.80
2023-01-26T18:36:12.195Z,3.70
2023-01-26T18:38:40.735Z,3.70
2023-01-26T18:41:12.383Z,3.70
2023-01-26T18:43:41.217Z,3.70
2023-01-26T18:46:10.001Z,3.70
2023-01-26T18:48:39.820Z,3.70
2023-01-26T18:51:08.744Z,3.60
2023-01-26T18:53:38.718Z,3.70
2023-01-26T18:56:09.229Z,3.70
2023-01-26T18:58:38.608Z,3.80
2023-01-26T19:01:10.848Z,3.80
2023-01-26T19:03:41.768Z,3.80
2023-01-26T19:06:11.249Z,3.80
2023-01-26T19:08:39.932Z,3.80
2023-01-26T19:11:09.223Z,3.80
2023-01-26T19:13:42.077Z,3.80
2023-01-26T19:16:11.390Z,3.80
2023-01-26T19:18:41.069Z,3.80
2023-01-26T19:21:10.747Z,3.70
2023-01-26T19:23:43.733Z,3.70
2023-01-26T19:26:12.997Z,3.70
2023-01-26T19:28:42.206Z,3.70
2023-01-26T19:31:11.398Z,3.70
2023-01-26T19:33:41.530Z,3.70
2023-01-26T19:36:10.336Z,3.70
2023-01-26T19:38:40.648Z,3.80
2023-01-26T19:41:08.998Z,3.80
2023-01-26T19:43:37.506Z,3.80
2023-01-26T19:46:08.515Z,3.80
2023-01-26T19:48:37.082Z,3.80
2023-01-26T19:51:08.686Z,3.80
2023-01-26T19:53:39.085Z,3.80
2023-01-26T19:56:08.815Z,3.80
2023-01-26T19:58:37.645Z,3.90
2023-01-26T20:01:08.320Z,3.90
2023-01-26T20:03:36.770Z,3.90
2023-01-26T20:06:07.383Z,3.80
2023-01-26T20:08:35.633Z,3.80
2023-01-26T20:11:05.076Z,3.80
2023-01-26T20:13:34.409Z,3.80
2023-01-26T20:16:03.992Z,3.80
2023-01-26T20:18:32.964Z,3.80
2023-01-26T20:21:01.321Z,3.80
2023-01-26T20:23:31.123Z,3.80
2023-01-26T20:26:03.585Z,3.80
2023-01-26T20:28:31.862Z,3.90
2023-01-26T20:31:06.692Z,3.90
2023-01-26T20:33:35.424Z,3.80
2023-01-26T20:36:07.899Z,3.80
2023-01-26T20:38:37.658Z,3.80
2023-01-26T20:41:09.650Z,3.80
2023-01-26T20:43:41.460Z,3.80
2023-01-26T20:46:12.984Z,3.80
2023-01-26T20:48:41.653Z,3.80
2023-01-26T20:51:14.109Z,3.80
2023-01-26T20:53:44.238Z,3.90
2023-01-26T20:56:13.410Z,3.90
2023-01-26T20:58:42.642Z,3.90
2023-01-26T21:01:12.761Z,3.90
2023-01-26T21:03:44.781Z,3.90
2023-01-26T21:06:15.822Z,4.00
2023-01-26T21:08:46.067Z,4.00
2023-01-26T21:11:16.972Z,4.00
2023-01-26T21:13:45.590Z,3.90
2023-01-26T21:16:16.492Z,3.90
2023-01-26T21:18:46.173Z,3.90
2023-01-26T21:21:17.878Z,3.90
2023-01-26T21:23:47.724Z,3.90
2023-01-26T21:26:19.156Z,4.00
2023-01-26T21:28:51.922Z,4.00
2023-01-26T21:31:21.856Z,3.90
2023-01-26T21:33:51.249Z,3.90
2023-01-26T21:36:21.160Z,3.90
2023-01-26T21:38:52.944Z,3.90
2023-01-26T21:41:40.714Z,3.90
2023-01-26T21:44:11.654Z,3.80
2023-01-26T21:46:40.082Z,3.80
2023-01-26T21:49:09.341Z,3.80
2023-01-26T21:51:55.474Z,3.70
2023-01-26T21:54:25.140Z,3.70
2023-01-26T21:56:53.646Z,3.70
2023-01-26T21:59:20.862Z,3.70
2023-01-26T22:01:50.927Z,3.70
2023-01-26T22:04:21.329Z,3.70
2023-01-26T22:06:49.912Z,3.70
2023-01-26T22:09:19.153Z,3.60
2023-01-26T22:11:50.652Z,3.60
2023-01-26T22:14:21.080Z,3.60
2023-01-26T22:16:49.686Z,3.70
2023-01-26T22:19:18.129Z,3.70
2023-01-26T22:21:46.584Z,3.80
2023-01-26T22:24:15.929Z,3.80
2023-01-26T22:26:47.789Z,3.90
2023-01-26T22:29:17.442Z,3.80
2023-01-26T22:31:45.755Z,3.80
2023-01-26T22:34:14.060Z,3.80
2023-01-26T22:36:42.341Z,3.70
2023-01-26T22:39:12.445Z,3.70
2023-01-26T22:41:41.485Z,3.60
2023-01-26T22:44:09.823Z,3.60
2023-01-26T22:46:39.586Z,3.70
2023-01-26T22:49:07.845Z,3.70
2023-01-26T22:51:37.616Z,3.70
2023-01-26T22:54:06.523Z,3.70
2023-01-26T22:56:34.911Z,3.70
2023-01-26T22:59:03.428Z,3.80
2023-01-26T23:01:33.498Z,3.80
2023-01-26T23:04:03.536Z,3.90
2023-01-26T23:06:31.980Z,3.90
2023-01-26T23:09:01.325Z,3.90
2023-01-26T23:11:30.410Z,4.00
2023-01-26T23:14:00.900Z,4.00
2023-01-26T23:16:29.678Z,4.00
2023-01-26T23:18:59.846Z,4.00
2023-01-26T23:21:30.779Z,4.00
2023-01-26T23:23:59.478Z,4.10
2023-01-26T23:26:27.982Z,4.10
2023-01-26T23:28:56.240Z,4.10
2023-01-26T23:31:24.643Z,4.10
2023-01-26T23:33:52.982Z,4.20
2023-01-26T23:36:21.919Z,4.20
2023-01-26T23:38:51.792Z,4.20
2023-01-26T23:41:20.447Z,4.20
2023-01-26T23:43:48.691Z,4.30
2023-01-26T23:46:17.080Z,4.30
2023-01-26T23:48:45.381Z,4.30
2023-01-26T23:51:14.170Z,4.30
2023-01-26T23:53:42.606Z,4.30
2023-01-26T23:56:15.438Z,4.30
2023-01-26T23:58:43.691Z,4.30
